Time;durP1;ratioP1;P1;durP2;ratioP2;P2;SDS_P1;SDS_P2;PMS_P1;PMS_P2;Temp;Humidity;BMP_temperature;BMP_pressure;BME280_temperature;BME280_humidity;BME280_pressure;Samples;Min_cycle;Max_cycle;Signal;HPM_P1;HPM_P2
2022/03/03 00:02:24;;;;;;;59.28;21.95;;;;;;;0.94;100.00;102316.59;5063637;28;20420;-73
2022/03/03 00:04:49;;;;;;;56.83;23.02;;;;;;;0.91;100.00;102311.47;5061228;28;20032;-73
2022/03/03 00:07:15;;;;;;;52.05;22.70;;;;;;;0.86;100.00;102296.97;5061947;28;20033;-73
2022/03/03 00:09:41;;;;;;;57.95;22.08;;;;;;;0.75;100.00;102289.53;5065435;28;20068;-73
2022/03/03 00:12:07;;;;;;;51.00;21.02;;;;;;;0.80;100.00;102301.44;5061653;28;20049;-73
2022/03/03 00:14:32;;;;;;;49.70;21.48;;;;;;;0.76;100.00;102302.47;5066738;28;20025;-73
2022/03/03 00:16:58;;;;;;;54.05;24.63;;;;;;;0.75;100.00;102303.34;5064345;28;20481;-72
2022/03/03 00:19:24;;;;;;;56.30;23.67;;;;;;;0.75;100.00;102297.31;5063971;28;20571;-72
2022/03/03 00:21:49;;;;;;;58.33;22.83;;;;;;;0.72;100.00;102298.28;5064071;28;20388;-73
2022/03/03 00:24:14;;;;;;;45.67;21.80;;;;;;;0.67;100.00;102294.97;5065931;28;20025;-73
2022/03/03 00:26:40;;;;;;;53.38;23.00;;;;;;;0.65;100.00;102291.56;5063443;28;20087;-72
2022/03/03 00:29:05;;;;;;;65.35;25.00;;;;;;;0.62;100.00;102291.66;5066118;28;20576;-72
2022/03/03 00:31:31;;;;;;;48.15;19.20;;;;;;;0.58;100.00;102288.31;5062188;28;20053;-72
2022/03/03 00:33:56;;;;;;;59.22;23.10;;;;;;;0.55;100.00;102280.63;5060541;28;20029;-72
2022/03/03 00:36:22;;;;;;;52.78;20.75;;;;;;;0.47;100.00;102266.19;5064420;28;20107;-72
2022/03/03 00:38:48;;;;;;;51.90;21.80;;;;;;;0.52;100.00;102272.06;5063775;28;20028;-72
2022/03/03 00:41:14;;;;;;;48.60;21.88;;;;;;;0.51;100.00;102275.59;5069408;28;20042;-71
2022/03/03 00:43:40;;;;;;;39.13;19.67;;;;;;;0.47;100.00;102261.84;5060312;28;20043;-72
2022/03/03 00:46:05;;;;;;;46.45;20.50;;;;;;;0.45;100.00;102257.59;5063905;28;20104;-72
2022/03/03 00:48:30;;;;;;;55.78;22.67;;;;;;;0.40;100.00;102239.56;5061919;28;20021;-72
2022/03/03 00:50:56;;;;;;;51.13;22.23;;;;;;;0.52;100.00;102259.09;5058586;28;20048;-72
2022/03/03 00:53:23;;;;;;;50.45;20.80;;;;;;;0.39;100.00;102230.94;5065320;28;20025;-72
2022/03/03 00:55:49;;;;;;;51.17;21.83;;;;;;;0.58;100.00;102249.34;5061619;28;20024;-72
2022/03/03 00:58:15;;;;;;;58.80;22.38;;;;;;;0.46;100.00;102228.13;5065099;28;20037;-72
2022/03/03 01:00:40;;;;;;;57.58;21.88;;;;;;;0.59;100.00;102260.59;5062616;28;20026;-72
2022/03/03 01:03:05;;;;;;;44.80;20.30;;;;;;;0.58;100.00;102254.53;5065905;28;20120;-72
2022/03/03 01:05:31;;;;;;;52.95;22.45;;;;;;;0.58;100.00;102257.13;5063154;28;20119;-72
2022/03/03 01:07:56;;;;;;;48.65;22.00;;;;;;;0.58;100.00;102248.50;5058571;28;20040;-72
2022/03/03 01:10:22;;;;;;;52.92;21.25;;;;;;;0.57;100.00;102250.25;5062844;28;20124;-73
2022/03/03 01:12:48;;;;;;;54.45;22.38;;;;;;;0.58;100.00;102245.91;5061048;28;20126;-73
2022/03/03 01:15:14;;;;;;;55.15;20.15;;;;;;;0.45;100.00;102221.25;5062965;28;20489;-73
2022/03/03 01:17:39;;;;;;;48.17;20.65;;;;;;;0.54;100.00;102241.69;5060187;28;20028;-72
2022/03/03 01:20:07;;;;;;;39.10;18.92;;;;;;;0.50;100.00;102240.97;5063510;28;20304;-72
2022/03/03 01:22:33;;;;;;;46.00;19.55;;;;;;;0.48;100.00;102244.50;5062800;28;20032;-72
2022/03/03 01:24:58;;;;;;;43.38;21.90;;;;;;;0.46;100.00;102248.91;5043584;28;20400;-72
2022/03/03 01:27:24;;;;;;;41.72;19.25;;;;;;;0.44;100.00;102250.72;5063938;28;20031;-72
2022/03/03 01:29:50;;;;;;;39.80;20.83;;;;;;;0.42;100.00;102242.13;5059010;28;20032;-72
2022/03/03 01:32:15;;;;;;;43.50;19.50;;;;;;;0.47;100.00;102242.81;5064045;28;20515;-72
2022/03/03 01:34:41;;;;;;;45.42;21.27;;;;;;;0.24;100.00;102209.78;5045939;28;20035;-72
2022/03/03 01:37:07;;;;;;;43.75;21.02;;;;;;;0.32;100.00;102225.97;5061811;28;20044;-72
2022/03/03 01:39:32;;;;;;;42.97;20.27;;;;;;;0.43;100.00;102243.81;5062291;28;20021;-72
2022/03/03 01:41:58;;;;;;;47.67;20.25;;;;;;;0.31;100.00;102225.13;5058656;28;20031;-72
2022/03/03 01:44:24;;;;;;;45.45;20.48;;;;;;;0.40;100.00;102237.81;5061966;28;20021;-73
2022/03/03 01:46:52;;;;;;;44.88;20.23;;;;;;;0.39;100.00;102238.72;5061459;28;20060;-73
2022/03/03 01:49:18;;;;;;;47.38;20.77;;;;;;;0.27;100.00;102209.72;5057369;28;20036;-73
2022/03/03 01:51:44;;;;;;;45.92;19.02;;;;;;;0.40;100.00;102222.22;5060107;28;20033;-73
2022/03/03 01:54:10;;;;;;;48.53;20.00;;;;;;;0.30;100.00;102210.44;5044292;28;20142;-73
2022/03/03 01:56:35;;;;;;;47.10;21.80;;;;;;;0.35;100.00;102211.16;5061604;28;20028;-73
2022/03/03 01:59:03;;;;;;;47.20;19.58;;;;;;;0.34;100.00;102213.78;5060383;28;20021;-73
2022/03/03 02:01:31;;;;;;;44.08;19.38;;;;;;;0.24;100.00;102192.50;5062573;28;20025;-71
2022/03/03 02:03:57;;;;;;;44.13;20.25;;;;;;;0.29;100.00;102215.72;5059945;28;20083;-71
2022/03/03 02:06:23;;;;;;;49.38;21.13;;;;;;;0.26;100.00;102216.66;5057814;28;20420;-71
2022/03/03 02:08:48;;;;;;;41.80;18.98;;;;;;;0.19;100.00;102215.97;5056171;28;20025;-71
2022/03/03 02:11:14;;;;;;;38.45;17.83;;;;;;;0.16;100.00;102216.09;5055403;28;20029;-71
2022/03/03 02:13:39;;;;;;;36.75;17.35;;;;;;;0.01;100.00;102200.16;5055809;28;20109;-71
2022/03/03 02:16:07;;;;;;;37.60;16.40;;;;;;;0.12;100.00;102213.66;5054443;28;20053;-71
2022/03/03 02:18:39;;;;;;;36.10;16.77;;;;;;;0.10;100.00;102215.44;5057244;28;20430;-71
2022/03/03 02:21:04;;;;;;;31.95;16.77;;;;;;;0.08;100.00;102212.88;5057429;28;20028;-70
2022/03/03 02:23:29;;;;;;;34.88;16.52;;;;;;;0.05;100.00;102204.38;5057525;28;20373;-70
2022/03/03 02:25:55;;;;;;;30.10;14.48;;;;;;;0.04;100.00;102200.06;5054979;28;20025;-71
2022/03/03 02:28:20;;;;;;;43.42;16.40;;;;;;;0.03;100.00;102203.56;5059206;28;20498;-71
2022/03/03 02:30:46;;;;;;;39.10;17.95;;;;;;;0.03;100.00;102204.41;5059431;28;20089;-71
2022/03/03 02:33:11;;;;;;;34.65;18.45;;;;;;;0.03;100.00;102194.03;5057883;28;20108;-71
2022/03/03 02:35:36;;;;;;;34.90;16.75;;;;;;;0.05;100.00;102193.97;5055521;28;20036;-71
2022/03/03 02:38:02;;;;;;;38.78;17.05;;;;;;;-0.12;100.00;102173.75;5056256;28;20064;-71
2022/03/03 02:40:27;;;;;;;35.70;19.60;;;;;;;-0.03;100.00;102195.06;5056186;28;20686;-71
2022/03/03 02:42:54;;;;;;;34.28;18.35;;;;;;;-0.07;100.00;102193.44;5058479;28;20456;-71
2022/03/03 02:45:21;;;;;;;37.25;19.15;;;;;;;-0.05;100.00;102183.88;5055724;28;20500;-70
2022/03/03 02:47:48;;;;;;;32.55;17.83;;;;;;;-0.08;100.00;102181.38;5039256;28;20036;-70
2022/03/03 02:50:16;;;;;;;43.85;21.10;;;;;;;0.03;100.00;102188.00;5056078;28;20119;-70
2022/03/03 02:52:41;;;;;;;43.97;19.95;;;;;;;0.05;100.00;102191.38;5055467;28;20027;-70
2022/03/03 02:55:08;;;;;;;42.13;20.52;;;;;;;0.02;100.00;102196.66;5058790;28;20024;-70
2022/03/03 03:00:17;;;;;;;42.10;19.92;;;;;;;-0.01;100.00;102205.41;5058556;28;20412;-70
2022/03/03 03:02:43;;;;;;;46.47;20.58;;;;;;;-0.04;100.00;102201.16;5053611;28;20029;-70
2022/03/03 03:05:10;;;;;;;39.40;19.27;;;;;;;-0.16;100.00;102195.50;5054844;28;20024;-70
2022/03/03 03:07:35;;;;;;;37.58;19.15;;;;;;;-0.14;100.00;102193.72;5056644;28;20792;-70
2022/03/03 03:10:02;;;;;;;41.90;17.73;;;;;;;-0.09;100.00;102197.84;5056531;28;20054;-70
2022/03/03 03:12:28;;;;;;;40.53;18.92;;;;;;;-0.08;100.00;102198.72;5057062;28;20049;-70
2022/03/03 03:14:53;;;;;;;37.05;20.60;;;;;;;-0.07;100.00;102193.44;5054072;28;20036;-70
2022/03/03 03:17:18;;;;;;;47.45;20.95;;;;;;;-0.08;100.00;102190.94;5056071;28;20129;-70
2022/03/03 03:19:44;;;;;;;43.22;18.63;;;;;;;-0.08;100.00;102196.13;5055352;28;20025;-70
2022/03/03 03:22:09;;;;;;;45.60;19.90;;;;;;;-0.10;100.00;102196.16;5057523;28;20028;-71
2022/03/03 03:24:35;;;;;;;44.40;19.33;;;;;;;-0.06;100.00;102192.56;5052573;28;20021;-71
2022/03/03 03:27:00;;;;;;;38.30;18.65;;;;;;;-0.05;100.00;102196.84;5021230;28;20066;-70
2022/03/03 03:29:26;;;;;;;48.13;21.23;;;;;;;-0.24;100.00;102183.63;5054256;28;20512;-70
2022/03/03 03:31:51;;;;;;;48.05;21.42;;;;;;;-0.20;100.00;102194.72;5036343;28;20036;-70
2022/03/03 03:34:16;;;;;;;48.58;21.00;;;;;;;-0.14;100.00;102196.31;5053696;28;20487;-71
2022/03/03 03:36:42;;;;;;;42.60;21.60;;;;;;;-0.17;100.00;102192.06;5053670;28;20025;-71
2022/03/03 03:39:07;;;;;;;45.20;21.75;;;;;;;-0.15;100.00;102199.78;5052166;28;20040;-70
2022/03/03 03:41:33;;;;;;;38.25;20.45;;;;;;;-0.17;100.00;102201.56;5056762;28;20032;-71
2022/03/03 03:43:58;;;;;;;52.00;23.17;;;;;;;-0.20;100.00;102197.31;5055207;28;20187;-71
2022/03/03 03:46:23;;;;;;;48.63;20.38;;;;;;;-0.24;100.00;102196.59;5053929;28;20036;-71
2022/03/03 03:48:49;;;;;;;49.78;21.15;;;;;;;-0.34;100.00;102187.38;5055544;28;20020;-71
2022/03/03 03:51:15;;;;;;;41.83;22.27;;;;;;;-0.32;100.00;102197.72;5057163;28;20542;-71
2022/03/03 03:53:40;;;;;;;42.38;20.90;;;;;;;-0.34;100.00;102196.91;5055754;28;20037;-70
2022/03/03 03:56:05;;;;;;;42.08;21.65;;;;;;;-0.37;100.00;102187.50;5055223;28;20032;-70
2022/03/03 03:58:31;;;;;;;48.20;20.70;;;;;;;-0.43;100.00;102185.06;5057584;28;20025;-70
2022/03/03 04:00:56;;;;;;;48.08;22.33;;;;;;;-0.40;100.00;102181.53;5062238;28;20033;-70
2022/03/03 04:03:22;;;;;;;44.20;21.00;;;;;;;-0.41;100.00;102167.72;5057739;28;20029;-70
2022/03/03 04:05:47;;;;;;;45.38;20.27;;;;;;;-0.39;100.00;102176.31;5059128;28;20052;-70
2022/03/03 04:08:14;;;;;;;46.22;21.33;;;;;;;-0.40;100.00;102179.78;5060259;28;20081;-70
2022/03/03 04:10:39;;;;;;;43.00;19.98;;;;;;;-0.40;100.00;102181.53;5053238;28;20400;-71
2022/03/03 04:13:05;;;;;;;48.42;20.52;;;;;;;-0.42;100.00;102182.41;5041323;28;20064;-70
2022/03/03 04:15:30;;;;;;;43.28;20.17;;;;;;;-0.56;100.00;102153.47;5053168;28;20044;-71
2022/03/03 04:17:56;;;;;;;37.17;20.95;;;;;;;-0.46;100.00;102175.66;5034548;28;20036;-71
2022/03/03 04:20:22;;;;;;;48.15;18.98;;;;;;;-0.49;100.00;102169.69;5060068;28;20078;-71
2022/03/03 04:22:48;;;;;;;47.95;20.75;;;;;;;-0.54;100.00;102171.59;5051313;28;20033;-71
2022/03/03 04:25:14;;;;;;;37.92;18.35;;;;;;;-0.55;100.00;102172.47;5051790;28;20023;-71
2022/03/03 04:27:40;;;;;;;41.33;19.60;;;;;;;-0.58;100.00;102169.97;5055568;28;20548;-71
2022/03/03 04:30:09;;;;;;;40.05;19.52;;;;;;;-0.65;100.00;102167.56;5057442;28;20036;-71
2022/03/03 04:32:35;;;;;;;44.95;20.98;;;;;;;-0.64;100.00;102163.22;5051833;28;20062;-71
2022/03/03 04:35:01;;;;;;;47.22;20.92;;;;;;;-0.64;100.00;102163.22;5054010;28;20040;-70
2022/03/03 04:37:26;;;;;;;37.05;17.30;;;;;;;-0.67;100.00;102152.94;5054544;28;20443;-70
2022/03/03 04:39:51;;;;;;;40.88;20.15;;;;;;;-0.63;100.00;102167.53;5036494;28;20025;-71
2022/03/03 04:42:17;;;;;;;49.25;21.08;;;;;;;-0.64;100.00;102160.63;5059891;28;20093;-71
2022/03/03 04:44:42;;;;;;;53.15;22.63;;;;;;;-0.67;100.00;102151.19;5055278;28;20052;-71
2022/03/03 04:47:08;;;;;;;36.70;17.70;;;;;;;-0.75;100.00;102141.94;5056618;28;20469;-71
2022/03/03 04:49:34;;;;;;;36.92;18.05;;;;;;;-0.68;100.00;102146.03;5056538;28;20119;-70
2022/03/03 04:51:59;;;;;;;48.78;19.77;;;;;;;-0.76;100.00;102129.88;5063016;28;20017;-70
2022/03/03 04:54:25;;;;;;;39.25;19.27;;;;;;;-0.65;100.00;102145.97;5038572;28;20028;-70
2022/03/03 04:56:52;;;;;;;43.67;20.48;;;;;;;-0.67;100.00;102150.34;5054454;28;20397;-71
2022/03/03 04:59:17;;;;;;;42.28;18.23;;;;;;;-0.72;100.00;102147.03;5058200;28;20073;-71
2022/03/03 05:01:43;;;;;;;45.42;19.98;;;;;;;-0.74;100.00;102148.81;5052370;28;20143;-70
2022/03/03 05:04:08;;;;;;;48.13;21.25;;;;;;;-0.76;100.00;102143.69;5056077;28;20036;-70
2022/03/03 05:06:34;;;;;;;41.55;19.85;;;;;;;-0.79;100.00;102145.53;5057506;28;20025;-70
2022/03/03 05:08:59;;;;;;;43.10;18.80;;;;;;;-0.81;100.00;102136.94;5052365;28;20048;-71
2022/03/03 05:11:24;;;;;;;40.72;18.17;;;;;;;-0.99;100.00;102110.66;5053028;28;20017;-71
2022/03/03 05:13:50;;;;;;;35.47;17.60;;;;;;;-0.84;100.00;102130.94;5034707;28;20028;-71
2022/03/03 05:16:15;;;;;;;38.25;20.08;;;;;;;-0.88;100.00;102121.56;5057236;28;20512;-71
2022/03/03 05:18:41;;;;;;;44.17;20.05;;;;;;;-0.86;100.00;102135.31;5058925;28;20455;-71
2022/03/03 05:21:06;;;;;;;39.83;18.83;;;;;;;-0.90;100.00;102123.34;5052964;28;20929;-71
2022/03/03 05:23:31;;;;;;;46.20;19.98;;;;;;;-0.91;100.00;102124.25;5052598;28;20119;-71
2022/03/03 05:25:57;;;;;;;44.75;21.45;;;;;;;-0.89;100.00;102135.44;5052442;28;20029;-71
2022/03/03 05:28:22;;;;;;;38.67;18.45;;;;;;;-0.91;100.00;102139.81;5054280;28;20023;-71
2022/03/03 05:30:48;;;;;;;39.03;17.92;;;;;;;-0.90;100.00;102133.72;5053053;28;20328;-71
2022/03/03 05:33:14;;;;;;;40.13;21.15;;;;;;;-0.90;100.00;102128.53;5057566;28;20439;-71
2022/03/03 05:35:40;;;;;;;39.45;19.63;;;;;;;-0.89;100.00;102132.84;5053189;28;20028;-72
2022/03/03 05:38:05;;;;;;;38.58;19.13;;;;;;;-0.90;100.00;102138.91;5054900;28;20037;-71
2022/03/03 05:40:31;;;;;;;32.58;16.55;;;;;;;-0.90;100.00;102138.06;5053358;28;20094;-71
2022/03/03 05:42:57;;;;;;;36.80;18.27;;;;;;;-0.93;100.00;102135.56;5052272;28;20032;-72
2022/03/03 05:45:22;;;;;;;53.50;20.80;;;;;;;-1.00;100.00;102121.94;5052624;28;20036;-71
2022/03/03 05:47:48;;;;;;;40.45;21.27;;;;;;;-0.95;100.00;102133.00;5057736;28;20300;-72
2022/03/03 05:50:14;;;;;;;38.85;18.10;;;;;;;-0.96;100.00;102139.06;5051098;28;20089;-72
2022/03/03 05:52:40;;;;;;;41.22;19.10;;;;;;;-0.96;100.00;102128.69;5051045;28;20523;-72
2022/03/03 05:55:05;;;;;;;40.63;18.67;;;;;;;-0.93;100.00;102139.00;5047854;28;20025;-72
2022/03/03 05:57:44;;;;;;;45.33;19.85;;;;;;;-0.95;100.00;102138.19;5049624;28;20436;-72
2022/03/03 06:00:16;;;;;;;46.85;21.60;;;;;;;-1.07;100.00;102130.75;5049788;28;20223;-72
2022/03/03 06:02:46;;;;;;;39.63;19.88;;;;;;;-1.13;100.00;102124.03;5049171;28;20570;-72
2022/03/03 06:05:13;;;;;;;36.92;18.33;;;;;;;-1.05;100.00;102144.53;5049750;28;20065;-72
2022/03/03 06:07:45;;;;;;;45.40;20.08;;;;;;;-1.13;100.00;102136.97;5047435;28;20036;-72
2022/03/03 06:10:13;;;;;;;40.97;18.77;;;;;;;-1.06;100.00;102148.00;5049669;28;20412;-72
2022/03/03 06:12:47;;;;;;;45.50;20.58;;;;;;;-1.22;100.00;102129.44;5058553;28;20055;-72
2022/03/03 06:15:14;;;;;;;47.70;20.85;;;;;;;-1.05;100.00;102144.53;5048068;28;20025;-73
2022/03/03 06:17:44;;;;;;;47.72;21.65;;;;;;;-0.99;100.00;102154.72;5053178;28;20025;-73
2022/03/03 06:20:10;;;;;;;50.60;22.67;;;;;;;-0.96;100.00;102154.63;5053313;28;20037;-72
2022/03/03 06:22:35;;;;;;;43.70;18.60;;;;;;;-0.91;100.00;102152.75;5046853;28;20110;-72
2022/03/03 06:25:01;;;;;;;45.47;21.48;;;;;;;-0.93;100.00;102146.78;5037096;28;20131;-71
2022/03/03 06:27:27;;;;;;;41.80;22.88;;;;;;;-0.84;100.00;102164.66;5047941;28;20028;-71
2022/03/03 06:29:55;;;;;;;40.78;21.02;;;;;;;-0.79;100.00;102164.50;5046335;28;20168;-71
2022/03/03 06:32:20;;;;;;;51.90;20.30;;;;;;;-0.75;100.00;102167.88;5045174;28;20078;-71
2022/03/03 06:34:46;;;;;;;44.90;20.70;;;;;;;-0.74;100.00;102165.25;5045368;28;20020;-72
2022/03/03 06:37:11;;;;;;;52.67;20.88;;;;;;;-0.69;100.00;102175.47;5047597;28;20055;-71
2022/03/03 06:39:37;;;;;;;40.10;20.73;;;;;;;-0.63;100.00;102172.72;5046506;28;20029;-71
2022/03/03 06:42:03;;;;;;;48.85;21.23;;;;;;;-0.64;100.00;102163.22;5047526;28;20033;-71
2022/03/03 06:44:28;;;;;;;48.20;23.30;;;;;;;-0.57;100.00;102172.50;5045707;28;20397;-72
2022/03/03 06:46:54;;;;;;;47.85;21.20;;;;;;;-0.64;100.00;102156.28;5048412;28;20167;-72
2022/03/03 06:49:20;;;;;;;58.40;23.40;;;;;;;-0.58;100.00;102162.19;5047491;28;20024;-72
2022/03/03 06:51:47;;;;;;;51.13;24.33;;;;;;;-0.43;100.00;102175.53;5041103;28;20377;-73
2022/03/03 06:54:20;;;;;;;42.97;20.15;;;;;;;-0.45;100.00;102181.69;5047615;28;20028;-72
2022/03/03 06:56:48;;;;;;;51.35;24.45;;;;;;;-0.36;100.00;102178.78;5048506;28;20021;-72
2022/03/03 06:59:22;;;;;;;56.05;23.48;;;;;;;-0.33;100.00;102180.44;5060675;28;20487;-74
2022/03/03 07:01:49;;;;;;;44.42;22.95;;;;;;;-0.26;100.00;102188.00;5056054;28;20025;-72
2022/03/03 07:04:16;;;;;;;45.30;22.27;;;;;;;-0.33;100.00;102159.69;5051663;28;20111;-72
2022/03/03 07:06:42;;;;;;;49.55;22.35;;;;;;;-0.14;100.00;102186.75;5057852;28;20039;-72
2022/03/03 07:09:08;;;;;;;42.83;21.30;;;;;;;-0.07;100.00;102188.25;5051289;28;20467;-72
2022/03/03 07:11:34;;;;;;;57.40;25.00;;;;;;;-0.01;100.00;102179.44;5054547;28;20020;-72
2022/03/03 07:14:00;;;;;;;53.15;21.92;;;;;;;-0.08;100.00;102165.81;5057993;28;20456;-72
2022/03/03 07:16:51;;;;;;;43.10;20.30;;;;;;;0.01;100.00;102169.00;5048708;28;20056;-72
2022/03/03 07:19:39;;;;;;;43.83;19.58;;;;;;;0.17;100.00;102183.19;5047595;28;20507;-71
2022/03/03 07:22:18;;;;;;;54.92;22.83;;;;;;;0.25;100.00;102181.19;5048293;28;20029;-73
2022/03/03 07:24:57;;;;;;;46.03;20.20;;;;;;;0.22;100.00;102165.72;5058698;28;20036;-71
2022/03/03 07:27:24;;;;;;;53.00;22.00;;;;;;;0.37;100.00;102187.72;5060240;28;20025;-71
2022/03/03 07:29:57;;;;;;;51.20;22.23;;;;;;;0.38;100.00;102187.66;5049420;28;20033;-71
2022/03/03 07:32:35;;;;;;;43.05;20.45;;;;;;;0.45;100.00;102184.88;5049329;28;20138;-71
2022/03/03 07:35:09;;;;;;;45.33;21.58;;;;;;;0.52;100.00;102184.63;5051540;28;20021;-71
2022/03/03 07:37:52;;;;;;;44.10;20.77;;;;;;;0.61;100.00;102180.88;5057837;28;20468;-71
2022/03/03 07:40:18;;;;;;;43.80;21.38;;;;;;;0.78;100.00;102186.31;5050405;28;20028;-72
2022/03/03 07:42:44;;;;;;;44.38;20.30;;;;;;;0.82;100.00;102180.09;5014230;28;20082;-70
2022/03/03 07:45:10;;;;;;;42.42;21.13;;;;;;;0.98;100.00;102184.72;5046438;28;20029;-70
2022/03/03 07:47:36;;;;;;;45.83;21.08;;;;;;;1.12;99.48;102181.66;5048064;28;20246;-70
2022/03/03 07:50:03;;;;;;;44.70;20.75;;;;;;;1.03;99.17;102159.44;5030863;28;20393;-70
2022/03/03 07:52:29;;;;;;;45.90;22.45;;;;;;;1.23;98.65;102182.09;5053132;28;20480;-70
2022/03/03 07:54:54;;;;;;;54.92;21.67;;;;;;;1.28;98.13;102181.94;5052003;28;20032;-70
2022/03/03 07:57:22;;;;;;;46.08;21.50;;;;;;;1.39;97.88;102178.03;5055737;28;20029;-70
2022/03/03 08:00:01;;;;;;;41.80;20.77;;;;;;;1.61;98.37;102183.25;5056260;28;20027;-70
2022/03/03 08:02:31;;;;;;;45.85;23.30;;;;;;;1.81;97.41;102159.06;5057673;28;20398;-70
2022/03/03 08:05:01;;;;;;;52.45;22.85;;;;;;;2.30;95.94;102182.25;5053732;28;20028;-70
2022/03/03 08:07:28;;;;;;;46.63;24.25;;;;;;;3.13;94.73;102188.25;5054833;28;20033;-70
2022/03/03 08:09:58;;;;;;;50.35;23.05;;;;;;;3.88;91.36;102184.78;5053687;28;20021;-70
2022/03/03 08:12:25;;;;;;;40.58;22.02;;;;;;;4.85;87.16;102179.91;5060983;28;20059;-70
2022/03/03 08:14:50;;;;;;;43.15;22.20;;;;;;;5.67;82.73;102187.69;5053415;28;20040;-71
2022/03/03 08:17:18;;;;;;;40.47;22.52;;;;;;;6.35;79.47;102189.13;5058650;28;20024;-71
2022/03/03 08:19:44;;;;;;;44.30;23.52;;;;;;;7.22;74.27;102172.53;5058272;28;20347;-71
2022/03/03 08:22:12;;;;;;;40.85;22.13;;;;;;;7.44;71.03;102179.91;5049450;28;20033;-72
2022/03/03 08:24:42;;;;;;;37.83;23.17;;;;;;;7.92;68.53;102176.84;5041349;28;20029;-72
2022/03/03 08:27:09;;;;;;;40.00;23.47;;;;;;;8.04;66.14;102182.16;5048926;28;20062;-72
2022/03/03 08:29:34;;;;;;;39.38;21.60;;;;;;;8.21;65.15;102207.34;5053226;28;20492;-72
2022/03/03 08:32:02;;;;;;;37.28;23.23;;;;;;;7.87;65.01;102205.22;5066661;28;20118;-72
2022/03/03 08:34:39;;;;;;;36.63;22.63;;;;;;;7.73;65.14;102199.06;5053650;28;20033;-72
2022/03/03 08:37:09;;;;;;;38.88;23.10;;;;;;;7.68;65.08;102206.41;5053952;28;20029;-72
2022/03/03 08:39:38;;;;;;;36.10;21.15;;;;;;;8.61;65.01;102209.97;5053120;28;20017;-72
2022/03/03 08:42:08;;;;;;;32.72;20.83;;;;;;;8.75;62.39;102205.56;5052907;28;20040;-72
2022/03/03 08:44:36;;;;;;;34.88;23.02;;;;;;;8.73;63.15;102212.72;5051484;28;20028;-72
2022/03/03 08:47:05;;;;;;;35.08;20.70;;;;;;;9.53;60.12;102212.41;5053623;28;20028;-72
2022/03/03 08:49:39;;;;;;;33.92;20.98;;;;;;;9.17;60.71;102211.44;5052469;28;20025;-72
2022/03/03 08:52:06;;;;;;;33.83;21.15;;;;;;;8.99;62.20;102214.41;5055085;28;20024;-72
2022/03/03 08:54:32;;;;;;;34.85;21.20;;;;;;;10.26;62.45;102217.59;5058998;28;20421;-72
2022/03/03 08:56:58;;;;;;;35.40;22.25;;;;;;;11.01;59.15;102213.69;5052692;28;20171;-72
2022/03/03 08:59:24;;;;;;;35.88;22.63;;;;;;;11.96;57.51;102217.72;5050694;28;20095;-72
2022/03/03 09:01:51;;;;;;;32.40;20.30;;;;;;;11.12;59.40;102215.50;5053487;28;20021;-72
2022/03/03 09:04:17;;;;;;;31.77;20.73;;;;;;;11.10;56.33;102213.00;5055183;28;20032;-72
2022/03/03 09:06:42;;;;;;;35.83;21.27;;;;;;;10.53;55.88;102213.88;5056285;28;20044;-72
2022/03/03 09:09:08;;;;;;;35.05;20.77;;;;;;;9.33;58.62;102201.50;5056271;28;20029;-72
2022/03/03 09:11:33;;;;;;;36.28;21.88;;;;;;;8.22;60.28;102198.50;5051161;28;20119;-72
2022/03/03 09:13:58;;;;;;;34.70;22.15;;;;;;;8.24;62.93;102201.88;5051493;28;20297;-71
2022/03/03 09:16:24;;;;;;;39.22;22.88;;;;;;;7.87;62.88;102200.81;5052769;28;20085;-70
2022/03/03 09:18:49;;;;;;;35.22;20.17;;;;;;;9.31;62.41;102192.03;5052184;28;20240;-70
2022/03/03 09:21:15;;;;;;;32.50;19.52;;;;;;;10.11;58.04;102181.81;5040785;28;20106;-71
2022/03/03 09:23:42;;;;;;;33.55;19.92;;;;;;;10.88;56.28;102186.56;5053592;28;20442;-72
2022/03/03 09:26:08;;;;;;;34.65;20.90;;;;;;;12.10;53.10;102183.00;5057375;28;20151;-72
2022/03/03 09:28:33;;;;;;;31.55;19.38;;;;;;;10.85;53.35;102177.06;5052606;28;20202;-72
2022/03/03 09:30:59;;;;;;;32.95;20.02;;;;;;;11.77;51.75;102179.47;5036010;28;20616;-70
2022/03/03 09:33:25;;;;;;;28.35;18.92;;;;;;;11.55;50.19;102174.25;5053482;28;20563;-71
2022/03/03 09:35:51;;;;;;;29.63;19.25;;;;;;;11.77;51.20;102160.97;5055526;28;20110;-71
2022/03/03 09:38:17;;;;;;;25.30;18.40;;;;;;;12.32;49.86;102163.50;5054966;28;20089;-72
2022/03/03 09:40:44;;;;;;;27.13;19.92;;;;;;;11.59;51.21;102154.53;5035638;28;20133;-72
2022/03/03 09:43:09;;;;;;;26.27;18.02;;;;;;;12.31;49.52;102148.59;5051818;28;20052;-72
2022/03/03 09:45:37;;;;;;;25.83;18.67;;;;;;;12.69;48.31;102173.63;5058033;28;20021;-71
2022/03/03 09:48:05;;;;;;;29.55;18.08;;;;;;;13.02;48.05;102169.03;5054157;28;20036;-71
2022/03/03 09:50:31;;;;;;;30.92;18.52;;;;;;;13.68;47.23;102168.56;5054300;28;20115;-71
2022/03/03 09:52:58;;;;;;;24.38;18.05;;;;;;;12.53;47.42;102174.94;5060290;28;20032;-71
2022/03/03 09:55:24;;;;;;;27.73;18.52;;;;;;;12.47;47.51;102169.31;5058035;28;20475;-71
2022/03/03 09:57:50;;;;;;;24.00;16.42;;;;;;;12.39;47.76;102135.56;5059167;28;20028;-71
2022/03/03 10:00:17;;;;;;;24.13;18.15;;;;;;;12.91;48.27;102168.19;5063292;28;20487;-71
2022/03/03 10:03:14;;;;;;;24.52;18.38;;;;;;;13.64;46.30;102167.16;5059806;28;20021;-71
2022/03/03 10:05:47;;;;;;;23.67;16.77;;;;;;;13.71;45.81;102165.59;5056638;28;20038;-71
2022/03/03 10:08:17;;;;;;;24.17;17.25;;;;;;;13.25;46.39;102172.34;5060458;28;20029;-71
2022/03/03 10:10:49;;;;;;;23.60;17.33;;;;;;;12.67;47.46;102172.91;5052811;28;20024;-71
2022/03/03 10:13:17;;;;;;;24.38;17.52;;;;;;;13.56;46.29;102162.50;5054607;28;20041;-71
2022/03/03 10:15:44;;;;;;;34.33;17.10;;;;;;;13.27;47.47;102175.69;5055679;28;20035;-71
2022/03/03 10:18:12;;;;;;;23.55;16.88;;;;;;;14.47;44.85;102178.16;5053268;28;20025;-71
2022/03/03 10:20:53;;;;;;;23.02;16.50;;;;;;;13.58;45.43;102174.66;5070408;28;20037;-71
2022/03/03 10:23:23;;;;;;;22.70;16.00;;;;;;;13.43;46.03;102181.31;5050861;28;20039;-71
2022/03/03 10:25:52;;;;;;;21.70;17.15;;;;;;;12.35;46.53;102174.69;5058977;28;20051;-71
2022/03/03 10:28:20;;;;;;;22.55;15.05;;;;;;;11.87;48.75;102174.28;5061149;28;20385;-72
2022/03/03 10:31:05;;;;;;;20.30;15.38;;;;;;;11.85;47.57;102187.63;5056783;28;20546;-72
2022/03/03 10:33:44;;;;;;;23.02;16.05;;;;;;;11.65;47.42;102191.91;5053472;28;20029;-72
2022/03/03 10:36:31;;;;;;;22.83;15.70;;;;;;;10.99;49.41;102199.75;5056423;28;20047;-72
2022/03/03 10:38:59;;;;;;;20.77;13.98;;;;;;;12.61;47.18;102184.03;5061589;28;20485;-72
2022/03/03 10:41:32;;;;;;;27.55;18.77;;;;;;;13.50;50.96;102192.22;5056733;28;20469;-72
2022/03/03 10:44:01;;;;;;;29.52;20.20;;;;;;;13.27;50.79;102196.91;5050322;28;20043;-72
2022/03/03 10:46:27;;;;;;;29.52;19.25;;;;;;;14.92;48.49;102206.72;5055583;28;20500;-72
2022/03/03 10:48:52;;;;;;;28.75;19.38;;;;;;;16.19;46.28;102212.13;5051244;28;20063;-72
2022/03/03 10:51:19;;;;;;;25.08;18.63;;;;;;;18.69;41.52;102203.66;5037066;28;20115;-72
2022/03/03 10:53:45;;;;;;;26.13;18.52;;;;;;;18.99;40.00;102198.56;5055140;28;20037;-72
2022/03/03 10:56:17;;;;;;;28.17;19.95;;;;;;;17.08;41.56;102208.44;5037362;28;20829;-72
2022/03/03 10:58:57;;;;;;;24.50;18.20;;;;;;;18.07;39.69;102205.03;5055717;28;20027;-72
2022/03/03 11:01:30;;;;;;;24.02;17.27;;;;;;;16.22;44.10;102207.34;5049633;28;20033;-72
2022/03/03 11:03:56;;;;;;;23.80;18.23;;;;;;;16.85;40.38;102214.31;5050863;28;20573;-72
2022/03/03 11:06:24;;;;;;;26.30;18.77;;;;;;;15.42;42.52;102222.31;5052059;28;20424;-72
2022/03/03 11:08:51;;;;;;;27.35;19.58;;;;;;;13.48;47.38;102208.31;5052555;28;20500;-72
2022/03/03 11:11:18;;;;;;;29.27;20.58;;;;;;;16.13;43.17;102194.09;5058540;28;20094;-72